sensor_id;sensor_type;location;lat;lon;timestamp;temperature;humidity
3208;DHT22;1616;52.394;9.756;2022-10-16T00:01:29;15.60;1.00
3208;DHT22;1616;52.394;9.756;2022-10-16T00:03:57;15.60;1.00
3208;DHT22;1616;52.394;9.756;2022-10-16T00:06:23;15.60;1.00
3208;DHT22;1616;52.394;9.756;2022-10-16T00:08:49;15.50;1.00
3208;DHT22;1616;52.394;9.756;2022-10-16T00:11:21;15.50;1.00
3208;DHT22;1616;52.394;9.756;2022-10-16T00:13:49;15.50;1.00
3208;DHT22;1616;52.394;9.756;2022-10-16T00:16:16;15.50;1.00
3208;DHT22;1616;52.394;9.756;2022-10-16T00:18:42;15.50;1.00
3208;DHT22;1616;52.394;9.756;2022-10-16T00:21:11;15.50;1.00
3208;DHT22;1616;52.394;9.756;2022-10-16T00:23:38;15.40;1.00
3208;DHT22;1616;52.394;9.756;2022-10-16T00:26:06;15.40;1.00
3208;DHT22;1616;52.394;9.756;2022-10-16T00:28:32;15.40;1.00
3208;DHT22;1616;52.394;9.756;2022-10-16T00:30:58;15.50;1.00
3208;DHT22;1616;52.394;9.756;2022-10-16T00:33:24;15.40;1.00
3208;DHT22;1616;52.394;9.756;2022-10-16T00:35:50;15.40;1.00
3208;DHT22;1616;52.394;9.756;2022-10-16T00:38:16;15.30;1.00
3208;DHT22;1616;52.394;9.756;2022-10-16T00:40:42;15.30;1.00
3208;DHT22;1616;52.394;9.756;2022-10-16T00:46:02;15.30;1.00
3208;DHT22;1616;52.394;9.756;2022-10-16T00:48:29;15.30;1.00
3208;DHT22;1616;52.394;9.756;2022-10-16T00:50:56;15.20;1.00
3208;DHT22;1616;52.394;9.756;2022-10-16T00:53:23;15.20;1.00
3208;DHT22;1616;52.394;9.756;2022-10-16T00:55:51;15.20;1.00
3208;DHT22;1616;52.394;9.756;2022-10-16T00:58:17;15.20;1.00
3208;DHT22;1616;52.394;9.756;2022-10-16T01:00:42;15.20;1.00
3208;DHT22;1616;52.394;9.756;2022-10-16T01:03:28;15.20;1.00
3208;DHT22;1616;52.394;9.756;2022-10-16T01:06:09;15.20;1.00
3208;DHT22;1616;52.394;9.756;2022-10-16T01:09:06;15.20;1.00
3208;DHT22;1616;52.394;9.756;2022-10-16T01:17:09;15.30;1.00
3208;DHT22;1616;52.394;9.756;2022-10-16T01:20:05;15.30;1.00
3208;DHT22;1616;52.394;9.756;2022-10-16T01:28:55;15.40;1.00
3208;DHT22;1616;52.394;9.756;2022-10-16T01:31:25;15.40;1.00
3208;DHT22;1616;52.394;9.756;2022-10-16T01:34:09;15.40;1.00
3208;DHT22;1616;52.394;9.756;2022-10-16T01:36:54;15.40;1.00
3208;DHT22;1616;52.394;9.756;2022-10-16T01:39:24;15.40;1.00
3208;DHT22;1616;52.394;9.756;2022-10-16T01:42:12;15.40;1.00
3208;DHT22;1616;52.394;9.756;2022-10-16T01:44:41;15.30;1.00
3208;DHT22;1616;52.394;9.756;2022-10-16T01:47:09;15.30;1.00
3208;DHT22;1616;52.394;9.756;2022-10-16T01:49:37;15.30;1.00
3208;DHT22;1616;52.394;9.756;2022-10-16T01:52:07;15.20;1.00
3208;DHT22;1616;52.394;9.756;2022-10-16T01:54:37;15.20;1.00
3208;DHT22;1616;52.394;9.756;2022-10-16T01:57:06;15.20;1.00
3208;DHT22;1616;52.394;9.756;2022-10-16T01:59:35;15.20;1.00
3208;DHT22;1616;52.394;9.756;2022-10-16T02:02:06;15.20;1.00
3208;DHT22;1616;52.394;9.756;2022-10-16T02:04:40;15.20;1.00
3208;DHT22;1616;52.394;9.756;2022-10-16T02:07:08;15.20;1.00
3208;DHT22;1616;52.394;9.756;2022-10-16T02:09:34;15.20;1.00
3208;DHT22;1616;52.394;9.756;2022-10-16T02:12:06;15.20;1.00
3208;DHT22;1616;52.394;9.756;2022-10-16T02:14:34;15.20;1.00
3208;DHT22;1616;52.394;9.756;2022-10-16T02:17:14;15.20;1.00
3208;DHT22;1616;52.394;9.756;2022-10-16T02:19:42;15.20;1.00
3208;DHT22;1616;52.394;9.756;2022-10-16T02:22:15;15.10;1.00
3208;DHT22;1616;52.394;9.756;2022-10-16T02:24:55;15.10;1.00
3208;DHT22;1616;52.394;9.756;2022-10-16T02:30:02;15.10;1.00
3208;DHT22;1616;52.394;9.756;2022-10-16T02:32:34;15.00;1.00
3208;DHT22;1616;52.394;9.756;2022-10-16T02:35:01;15.00;1.00
3208;DHT22;1616;52.394;9.756;2022-10-16T02:37:28;15.00;1.00
3208;DHT22;1616;52.394;9.756;2022-10-16T02:39:56;14.90;1.00
3208;DHT22;1616;52.394;9.756;2022-10-16T02:42:28;14.90;1.00
3208;DHT22;1616;52.394;9.756;2022-10-16T02:44:55;14.90;1.00
3208;DHT22;1616;52.394;9.756;2022-10-16T02:47:20;14.90;1.00
3208;DHT22;1616;52.394;9.756;2022-10-16T02:49:46;14.90;1.00
3208;DHT22;1616;52.394;9.756;2022-10-16T02:52:12;14.80;1.00
3208;DHT22;1616;52.394;9.756;2022-10-16T02:54:37;14.80;1.00
3208;DHT22;1616;52.394;9.756;2022-10-16T02:57:03;14.70;1.00
3208;DHT22;1616;52.394;9.756;2022-10-16T02:59:28;14.70;1.00
3208;DHT22;1616;52.394;9.756;2022-10-16T03:01:54;14.70;1.00
3208;DHT22;1616;52.394;9.756;2022-10-16T03:04:21;14.60;1.00
3208;DHT22;1616;52.394;9.756;2022-10-16T03:06:46;14.60;1.00
3208;DHT22;1616;52.394;9.756;2022-10-16T03:09:12;14.50;1.00
3208;DHT22;1616;52.394;9.756;2022-10-16T03:11:38;14.40;1.00
3208;DHT22;1616;52.394;9.756;2022-10-16T03:14:04;14.40;1.00
3208;DHT22;1616;52.394;9.756;2022-10-16T03:16:29;14.40;1.00
3208;DHT22;1616;52.394;9.756;2022-10-16T03:18:55;14.40;1.00
3208;DHT22;1616;52.394;9.756;2022-10-16T03:21:20;14.30;1.00
3208;DHT22;1616;52.394;9.756;2022-10-16T03:23:46;14.30;1.00
3208;DHT22;1616;52.394;9.756;2022-10-16T03:26:12;14.30;1.00
3208;DHT22;1616;52.394;9.756;2022-10-16T03:28:37;14.30;1.00
3208;DHT22;1616;52.394;9.756;2022-10-16T03:31:03;14.30;1.00
3208;DHT22;1616;52.394;9.756;2022-10-16T03:33:28;14.30;1.00
3208;DHT22;1616;52.394;9.756;2022-10-16T03:35:55;14.30;1.00
3208;DHT22;1616;52.394;9.756;2022-10-16T03:38:21;14.20;1.00
3208;DHT22;1616;52.394;9.756;2022-10-16T03:40:47;14.20;1.00
3208;DHT22;1616;52.394;9.756;2022-10-16T03:43:13;14.20;1.00
3208;DHT22;1616;52.394;9.756;2022-10-16T03:45:39;14.20;1.00
3208;DHT22;1616;52.394;9.756;2022-10-16T03:48:05;14.20;1.00
3208;DHT22;1616;52.394;9.756;2022-10-16T03:50:31;14.10;1.00
3208;DHT22;1616;52.394;9.756;2022-10-16T03:52:57;14.10;1.00
3208;DHT22;1616;52.394;9.756;2022-10-16T03:55:23;14.00;1.00
3208;DHT22;1616;52.394;9.756;2022-10-16T03:57:49;14.00;1.00
3208;DHT22;1616;52.394;9.756;2022-10-16T04:00:14;14.00;1.00
3208;DHT22;1616;52.394;9.756;2022-10-16T04:02:40;13.90;1.00
3208;DHT22;1616;52.394;9.756;2022-10-16T04:05:06;13.90;1.00
3208;DHT22;1616;52.394;9.756;2022-10-16T04:07:32;13.90;1.00
3208;DHT22;1616;52.394;9.756;2022-10-16T04:09:58;13.80;1.00
3208;DHT22;1616;52.394;9.756;2022-10-16T04:12:25;13.80;1.00
3208;DHT22;1616;52.394;9.756;2022-10-16T04:14:51;13.80;1.00
3208;DHT22;1616;52.394;9.756;2022-10-16T04:17:17;13.80;1.00
3208;DHT22;1616;52.394;9.756;2022-10-16T04:19:42;13.80;1.00
3208;DHT22;1616;52.394;9.756;2022-10-16T04:22:08;13.80;1.00
3208;DHT22;1616;52.394;9.756;2022-10-16T04:24:34;13.70;1.00
3208;DHT22;1616;52.394;9.756;2022-10-16T04:26:59;13.80;1.00
3208;DHT22;1616;52.394;9.756;2022-10-16T04:29:25;13.80;1.00
3208;DHT22;1616;52.394;9.756;2022-10-16T04:31:51;13.80;1.00
3208;DHT22;1616;52.394;9.756;2022-10-16T04:34:17;13.80;1.00
3208;DHT22;1616;52.394;9.756;2022-10-16T04:36:42;13.70;1.00
3208;DHT22;1616;52.394;9.756;2022-10-16T04:39:08;13.70;1.00
3208;DHT22;1616;52.394;9.756;2022-10-16T04:41:34;13.70;1.00
3208;DHT22;1616;52.394;9.756;2022-10-16T04:43:59;13.70;1.00
3208;DHT22;1616;52.394;9.756;2022-10-16T04:46:25;13.70;1.00
3208;DHT22;1616;52.394;9.756;2022-10-16T04:48:51;13.70;1.00
3208;DHT22;1616;52.394;9.756;2022-10-16T04:51:16;13.70;1.00
3208;DHT22;1616;52.394;9.756;2022-10-16T04:53:44;13.60;1.00
3208;DHT22;1616;52.394;9.756;2022-10-16T04:56:09;13.70;1.00
3208;DHT22;1616;52.394;9.756;2022-10-16T04:58:35;13.70;1.00
3208;DHT22;1616;52.394;9.756;2022-10-16T05:01:01;13.70;1.00
3208;DHT22;1616;52.394;9.756;2022-10-16T05:03:27;13.70;1.00
3208;DHT22;1616;52.394;9.756;2022-10-16T05:05:52;13.70;1.00
3208;DHT22;1616;52.394;9.756;2022-10-16T05:08:18;13.70;1.00
3208;DHT22;1616;52.394;9.756;2022-10-16T05:10:44;13.80;1.00
3208;DHT22;1616;52.394;9.756;2022-10-16T05:13:10;13.80;1.00
3208;DHT22;1616;52.394;9.756;2022-10-16T05:15:36;13.80;1.00
3208;DHT22;1616;52.394;9.756;2022-10-16T05:18:03;13.90;1.00
3208;DHT22;1616;52.394;9.756;2022-10-16T05:20:29;13.90;1.00
3208;DHT22;1616;52.394;9.756;2022-10-16T05:22:55;14.00;1.00
3208;DHT22;1616;52.394;9.756;2022-10-16T05:25:20;13.90;1.00
3208;DHT22;1616;52.394;9.756;2022-10-16T05:27:49;14.00;1.00
3208;DHT22;1616;52.394;9.756;2022-10-16T05:30:16;14.00;1.00
3208;DHT22;1616;52.394;9.756;2022-10-16T05:32:49;14.00;1.00
3208;DHT22;1616;52.394;9.756;2022-10-16T05:35:16;14.00;1.20
3208;DHT22;1616;52.394;9.756;2022-10-16T05:37:42;14.10;1.00
3208;DHT22;1616;52.394;9.756;2022-10-16T05:40:09;14.10;1.00
3208;DHT22;1616;52.394;9.756;2022-10-16T05:42:35;14.10;1.00
3208;DHT22;1616;52.394;9.756;2022-10-16T05:45:00;14.20;1.00
3208;DHT22;1616;52.394;9.756;2022-10-16T05:47:26;14.20;1.00
3208;DHT22;1616;52.394;9.756;2022-10-16T05:49:52;14.20;1.00
3208;DHT22;1616;52.394;9.756;2022-10-16T05:52:18;14.20;1.00
3208;DHT22;1616;52.394;9.756;2022-10-16T05:54:44;14.20;1.00
3208;DHT22;1616;52.394;9.756;2022-10-16T05:57:10;14.20;1.00
3208;DHT22;1616;52.394;9.756;2022-10-16T05:59:36;14.20;1.00
3208;DHT22;1616;52.394;9.756;2022-10-16T06:02:02;14.20;1.00
3208;DHT22;1616;52.394;9.756;2022-10-16T06:04:27;14.20;1.00
3208;DHT22;1616;52.394;9.756;2022-10-16T06:06:53;14.20;1.00
3208;DHT22;1616;52.394;9.756;2022-10-16T06:09:18;14.10;1.00
3208;DHT22;1616;52.394;9.756;2022-10-16T06:11:44;14.10;1.00
3208;DHT22;1616;52.394;9.756;2022-10-16T06:14:10;14.10;1.00
3208;DHT22;1616;52.394;9.756;2022-10-16T06:16:37;14.20;1.00
3208;DHT22;1616;52.394;9.756;2022-10-16T06:19:03;14.20;1.00
3208;DHT22;1616;52.394;9.756;2022-10-16T06:21:32;14.20;1.00
3208;DHT22;1616;52.394;9.756;2022-10-16T06:23:58;14.30;1.80
3208;DHT22;1616;52.394;9.756;2022-10-16T06:26:26;14.40;1.50
3208;DHT22;1616;52.394;9.756;2022-10-16T06:28:55;14.40;1.70
3208;DHT22;1616;52.394;9.756;2022-10-16T06:31:21;14.60;4.30
3208;DHT22;1616;52.394;9.756;2022-10-16T06:33:50;15.00;5.50
3208;DHT22;1616;52.394;9.756;2022-10-16T06:36:17;15.40;5.30
3208;DHT22;1616;52.394;9.756;2022-10-16T06:38:43;15.70;1.70
3208;DHT22;1616;52.394;9.756;2022-10-16T06:41:12;15.90;1.00
3208;DHT22;1616;52.394;9.756;2022-10-16T06:43:38;16.20;1.00
3208;DHT22;1616;52.394;9.756;2022-10-16T06:46:05;16.50;1.00
3208;DHT22;1616;52.394;9.756;2022-10-16T06:48:33;16.80;1.00
3208;DHT22;1616;52.394;9.756;2022-10-16T06:51:05;17.00;1.00
3208;DHT22;1616;52.394;9.756;2022-10-16T06:53:34;17.00;1.00
3208;DHT22;1616;52.394;9.756;2022-10-16T06:56:23;17.30;1.00
3208;DHT22;1616;52.394;9.756;2022-10-16T06:58:50;17.90;1.00
3208;DHT22;1616;52.394;9.756;2022-10-16T07:01:17;18.50;1.00
3208;DHT22;1616;52.394;9.756;2022-10-16T07:03:44;19.00;1.00
3208;DHT22;1616;52.394;9.756;2022-10-16T07:06:12;19.50;1.00
3208;DHT22;1616;52.394;9.756;2022-10-16T07:08:40;19.80;1.00
3208;DHT22;1616;52.394;9.756;2022-10-16T07:11:09;19.90;1.00
3208;DHT22;1616;52.394;9.756;2022-10-16T07:13:36;19.90;1.00
3208;DHT22;1616;52.394;9.756;2022-10-16T07:16:13;20.00;1.00
3208;DHT22;1616;52.394;9.756;2022-10-16T07:18:40;20.30;1.00
3208;DHT22;1616;52.394;9.756;2022-10-16T07:21:10;20.40;1.00
3208;DHT22;1616;52.394;9.756;2022-10-16T07:23:37;20.30;1.00
3208;DHT22;1616;52.394;9.756;2022-10-16T07:26:03;20.10;1.00
3208;DHT22;1616;52.394;9.756;2022-10-16T07:28:29;20.00;1.00
3208;DHT22;1616;52.394;9.756;2022-10-16T07:30:59;20.00;1.00
3208;DHT22;1616;52.394;9.756;2022-10-16T07:33:25;20.10;1.00
3208;DHT22;1616;52.394;9.756;2022-10-16T07:35:52;20.30;1.00
3208;DHT22;1616;52.394;9.756;2022-10-16T07:38:18;20.40;1.00
3208;DHT22;1616;52.394;9.756;2022-10-16T07:40:44;20.60;1.00
3208;DHT22;1616;52.394;9.756;2022-10-16T07:43:10;21.10;1.00
3208;DHT22;1616;52.394;9.756;2022-10-16T07:45:37;21.80;1.00
3208;DHT22;1616;52.394;9.756;2022-10-16T07:48:03;22.60;1.00
3208;DHT22;1616;52.394;9.756;2022-10-16T07:50:28;23.40;1.00
3208;DHT22;1616;52.394;9.756;2022-10-16T07:52:55;24.10;1.00
3208;DHT22;1616;52.394;9.756;2022-10-16T07:55:21;24.70;1.00
3208;DHT22;1616;52.394;9.756;2022-10-16T07:57:46;25.00;1.00
3208;DHT22;1616;52.394;9.756;2022-10-16T08:00:12;25.30;1.00
3208;DHT22;1616;52.394;9.756;2022-10-16T08:02:40;25.60;1.00
3208;DHT22;1616;52.394;9.756;2022-10-16T08:05:06;25.90;1.00
3208;DHT22;1616;52.394;9.756;2022-10-16T08:07:32;26.20;1.00
3208;DHT22;1616;52.394;9.756;2022-10-16T08:09:57;26.20;1.00
3208;DHT22;1616;52.394;9.756;2022-10-16T08:12:25;26.20;1.00
3208;DHT22;1616;52.394;9.756;2022-10-16T08:14:50;26.30;1.00
3208;DHT22;1616;52.394;9.756;2022-10-16T08:17:16;26.40;1.00
3208;DHT22;1616;52.394;9.756;2022-10-16T08:19:46;26.70;1.00
3208;DHT22;1616;52.394;9.756;2022-10-16T08:22:13;26.90;1.00
3208;DHT22;1616;52.394;9.756;2022-10-16T08:24:39;27.10;1.00
3208;DHT22;1616;52.394;9.756;2022-10-16T08:27:05;27.20;1.00
3208;DHT22;1616;52.394;9.756;2022-10-16T08:29:31;27.20;1.00
3208;DHT22;1616;52.394;9.756;2022-10-16T08:31:56;27.20;1.00
3208;DHT22;1616;52.394;9.756;2022-10-16T08:34:22;27.00;1.00
3208;DHT22;1616;52.394;9.756;2022-10-16T08:36:48;26.90;1.00
3208;DHT22;1616;52.394;9.756;2022-10-16T08:39:13;26.90;1.00
3208;DHT22;1616;52.394;9.756;2022-10-16T08:44:44;26.50;1.00
3208;DHT22;1616;52.394;9.756;2022-10-16T08:50:17;27.20;1.00
3208;DHT22;1616;52.394;9.756;2022-10-16T08:52:44;27.20;1.00
3208;DHT22;1616;52.394;9.756;2022-10-16T08:57:55;27.70;1.00
3208;DHT22;1616;52.394;9.756;2022-10-16T09:00:21;27.90;1.00
3208;DHT22;1616;52.394;9.756;2022-10-16T09:03:13;28.10;1.00
3208;DHT22;1616;52.394;9.756;2022-10-16T09:05:48;28.30;1.00
3208;DHT22;1616;52.394;9.756;2022-10-16T09:14:00;28.50;1.00
3208;DHT22;1616;52.394;9.756;2022-10-16T09:16:51;28.60;1.00
3208;DHT22;1616;52.394;9.756;2022-10-16T09:19:35;29.00;1.00
3208;DHT22;1616;52.394;9.756;2022-10-16T09:22:12;29.40;1.00
3208;DHT22;1616;52.394;9.756;2022-10-16T09:24:39;29.80;1.00
3208;DHT22;1616;52.394;9.756;2022-10-16T09:27:11;29.90;1.00
3208;DHT22;1616;52.394;9.756;2022-10-16T09:29:37;30.10;1.00
3208;DHT22;1616;52.394;9.756;2022-10-16T09:32:18;29.90;1.00
3208;DHT22;1616;52.394;9.756;2022-10-16T09:34:50;29.70;1.00
3208;DHT22;1616;52.394;9.756;2022-10-16T09:37:19;29.60;1.00
3208;DHT22;1616;52.394;9.756;2022-10-16T09:39:52;29.60;1.00
3208;DHT22;1616;52.394;9.756;2022-10-16T09:42:25;29.60;1.00
3208;DHT22;1616;52.394;9.756;2022-10-16T09:44:53;29.70;1.00
3208;DHT22;1616;52.394;9.756;2022-10-16T09:47:39;30.10;1.00
3208;DHT22;1616;52.394;9.756;2022-10-16T09:50:26;30.20;1.00
3208;DHT22;1616;52.394;9.756;2022-10-16T09:53:18;30.50;1.00
3208;DHT22;1616;52.394;9.756;2022-10-16T09:55:52;30.70;1.00
3208;DHT22;1616;52.394;9.756;2022-10-16T09:58:22;30.70;1.00
3208;DHT22;1616;52.394;9.756;2022-10-16T10:00:51;30.60;1.00
3208;DHT22;1616;52.394;9.756;2022-10-16T10:03:36;30.80;1.00
3208;DHT22;1616;52.394;9.756;2022-10-16T10:06:25;31.00;1.00
3208;DHT22;1616;52.394;9.756;2022-10-16T10:09:20;31.30;1.00
3208;DHT22;1616;52.394;9.756;2022-10-16T10:11:51;31.70;1.00
3208;DHT22;1616;52.394;9.756;2022-10-16T10:14:22;32.20;1.00
3208;DHT22;1616;52.394;9.756;2022-10-16T10:16:49;32.40;1.00
3208;DHT22;1616;52.394;9.756;2022-10-16T10:19:17;32.30;1.00
3208;DHT22;1616;52.394;9.756;2022-10-16T10:21:44;32.30;1.00
3208;DHT22;1616;52.394;9.756;2022-10-16T10:24:12;32.30;1.00
3208;DHT22;1616;52.394;9.756;2022-10-16T10:26:39;31.70;1.00
3208;DHT22;1616;52.394;9.756;2022-10-16T10:29:53;31.00;1.00
3208;DHT22;1616;52.394;9.756;2022-10-16T10:40:43;29.70;1.00
3208;DHT22;1616;52.394;9.756;2022-10-16T10:46:03;29.80;1.00
3208;DHT22;1616;52.394;9.756;2022-10-16T10:49:01;30.00;1.00
3208;DHT22;1616;52.394;9.756;2022-10-16T10:51:41;29.90;1.00
3208;DHT22;1616;52.394;9.756;2022-10-16T10:54:25;29.40;1.00
3208;DHT22;1616;52.394;9.756;2022-10-16T10:57:32;29.00;1.00
3208;DHT22;1616;52.394;9.756;2022-10-16T11:00:03;28.70;1.00
3208;DHT22;1616;52.394;9.756;2022-10-16T11:02:41;29.10;1.00
3208;DHT22;1616;52.394;9.756;2022-10-16T11:05:33;29.50;1.00
3208;DHT22;1616;52.394;9.756;2022-10-16T11:08:14;29.80;1.00
3208;DHT22;1616;52.394;9.756;2022-10-16T11:10:58;30.10;1.00
3208;DHT22;1616;52.394;9.756;2022-10-16T11:13:42;29.90;1.00
3208;DHT22;1616;52.394;9.756;2022-10-16T11:16:21;29.80;1.00
3208;DHT22;1616;52.394;9.756;2022-10-16T11:19:22;29.60;1.00
3208;DHT22;1616;52.394;9.756;2022-10-16T11:22:15;29.40;1.00
3208;DHT22;1616;52.394;9.756;2022-10-16T11:24:53;29.30;1.00
3208;DHT22;1616;52.394;9.756;2022-10-16T11:27:28;29.30;1.00
3208;DHT22;1616;52.394;9.756;2022-10-16T11:29:59;29.30;1.00
3208;DHT22;1616;52.394;9.756;2022-10-16T11:35:46;28.60;1.00
3208;DHT22;1616;52.394;9.756;2022-10-16T11:38:39;28.10;1.00
3208;DHT22;1616;52.394;9.756;2022-10-16T11:41:27;27.60;1.00
3208;DHT22;1616;52.394;9.756;2022-10-16T11:49:43;26.10;1.00
3208;DHT22;1616;52.394;9.756;2022-10-16T11:55:05;25.60;1.00
3208;DHT22;1616;52.394;9.756;2022-10-16T11:57:39;25.60;1.00
3208;DHT22;1616;52.394;9.756;2022-10-16T12:00:18;26.00;1.00
3208;DHT22;1616;52.394;9.756;2022-10-16T12:03:12;26.60;1.00
3208;DHT22;1616;52.394;9.756;2022-10-16T12:08:53;27.80;1.00
3208;DHT22;1616;52.394;9.756;2022-10-16T12:11:38;28.30;1.00
3208;DHT22;1616;52.394;9.756;2022-10-16T12:16:32;28.90;1.00
3208;DHT22;1616;52.394;9.756;2022-10-16T12:19:15;29.00;1.00
3208;DHT22;1616;52.394;9.756;2022-10-16T12:21:43;28.60;1.00
3208;DHT22;1616;52.394;9.756;2022-10-16T12:24:37;28.10;1.00
3208;DHT22;1616;52.394;9.756;2022-10-16T12:27:06;27.30;1.00
3208;DHT22;1616;52.394;9.756;2022-10-16T12:29:37;26.50;1.00
3208;DHT22;1616;52.394;9.756;2022-10-16T12:32:33;25.80;1.00
3208;DHT22;1616;52.394;9.756;2022-10-16T12:35:01;25.30;1.00
3208;DHT22;1616;52.394;9.756;2022-10-16T12:37:35;25.10;1.00
3208;DHT22;1616;52.394;9.756;2022-10-16T12:40:14;25.10;1.00
3208;DHT22;1616;52.394;9.756;2022-10-16T12:42:40;25.20;1.00
3208;DHT22;1616;52.394;9.756;2022-10-16T12:47:55;25.20;1.00
3208;DHT22;1616;52.394;9.756;2022-10-16T12:50:36;25.10;1.00
3208;DHT22;1616;52.394;9.756;2022-10-16T12:53:17;25.10;1.00
3208;DHT22;1616;52.394;9.756;2022-10-16T12:55:53;24.90;1.00
3208;DHT22;1616;52.394;9.756;2022-10-16T13:01:23;24.50;1.00
3208;DHT22;1616;52.394;9.756;2022-10-16T13:04:06;24.30;1.00
3208;DHT22;1616;52.394;9.756;2022-10-16T13:06:47;24.10;1.00
3208;DHT22;1616;52.394;9.756;2022-10-16T13:15:09;23.40;1.00
3208;DHT22;1616;52.394;9.756;2022-10-16T13:17:50;23.10;1.00
3208;DHT22;1616;52.394;9.756;2022-10-16T13:20:25;22.90;1.00
3208;DHT22;1616;52.394;9.756;2022-10-16T13:28:02;22.60;1.00
3208;DHT22;1616;52.394;9.756;2022-10-16T13:30:40;22.70;1.00
3208;DHT22;1616;52.394;9.756;2022-10-16T13:35:35;22.60;1.00
3208;DHT22;1616;52.394;9.756;2022-10-16T13:38:25;22.60;1.00
3208;DHT22;1616;52.394;9.756;2022-10-16T13:41:01;22.50;1.00
3208;DHT22;1616;52.394;9.756;2022-10-16T13:43:51;22.40;1.00
3208;DHT22;1616;52.394;9.756;2022-10-16T13:46:22;22.30;1.00
3208;DHT22;1616;52.394;9.756;2022-10-16T13:49:16;22.20;1.00
3208;DHT22;1616;52.394;9.756;2022-10-16T13:51:54;22.10;1.00
3208;DHT22;1616;52.394;9.756;2022-10-16T13:54:20;22.00;1.00
3208;DHT22;1616;52.394;9.756;2022-10-16T13:56:46;21.90;1.00
3208;DHT22;1616;52.394;9.756;2022-10-16T13:59:33;21.90;1.00
3208;DHT22;1616;52.394;9.756;2022-10-16T14:02:00;21.80;1.00
3208;DHT22;1616;52.394;9.756;2022-10-16T14:04:32;21.70;1.00
3208;DHT22;1616;52.394;9.756;2022-10-16T14:06:58;21.60;1.00
3208;DHT22;1616;52.394;9.756;2022-10-16T14:09:26;21.50;1.00
3208;DHT22;1616;52.394;9.756;2022-10-16T14:12:01;21.40;1.00
3208;DHT22;1616;52.394;9.756;2022-10-16T14:14:33;21.40;1.00
3208;DHT22;1616;52.394;9.756;2022-10-16T14:16:59;21.30;1.00
3208;DHT22;1616;52.394;9.756;2022-10-16T14:19:27;21.30;1.00
3208;DHT22;1616;52.394;9.756;2022-10-16T14:21:54;21.30;1.00
3208;DHT22;1616;52.394;9.756;2022-10-16T14:24:34;21.20;1.00
3208;DHT22;1616;52.394;9.756;2022-10-16T14:27:01;21.10;1.00
3208;DHT22;1616;52.394;9.756;2022-10-16T14:29:29;21.00;1.00
3208;DHT22;1616;52.394;9.756;2022-10-16T14:32:05;21.00;1.00
3208;DHT22;1616;52.394;9.756;2022-10-16T14:34:35;21.00;1.00
3208;DHT22;1616;52.394;9.756;2022-10-16T14:39:49;20.80;1.00
3208;DHT22;1616;52.394;9.756;2022-10-16T14:42:17;20.80;1.00
3208;DHT22;1616;52.394;9.756;2022-10-16T14:44:45;20.70;1.00
3208;DHT22;1616;52.394;9.756;2022-10-16T14:47:17;20.60;1.00
3208;DHT22;1616;52.394;9.756;2022-10-16T14:49:48;20.60;1.00
3208;DHT22;1616;52.394;9.756;2022-10-16T14:52:14;20.50;1.00
3208;DHT22;1616;52.394;9.756;2022-10-16T14:54:40;20.50;1.00
3208;DHT22;1616;52.394;9.756;2022-10-16T14:57:17;20.40;1.00
3208;DHT22;1616;52.394;9.756;2022-10-16T14:59:43;20.40;1.00
3208;DHT22;1616;52.394;9.756;2022-10-16T15:02:34;20.30;1.00
3208;DHT22;1616;52.394;9.756;2022-10-16T15:05:22;20.30;1.00
3208;DHT22;1616;52.394;9.756;2022-10-16T15:07:50;20.20;1.00
3208;DHT22;1616;52.394;9.756;2022-10-16T15:10:17;20.20;1.00
3208;DHT22;1616;52.394;9.756;2022-10-16T15:12:43;20.10;1.00
3208;DHT22;1616;52.394;9.756;2022-10-16T15:17:47;20.00;1.00
3208;DHT22;1616;52.394;9.756;2022-10-16T15:20:13;20.00;1.00
3208;DHT22;1616;52.394;9.756;2022-10-16T15:22:39;19.90;1.00
3208;DHT22;1616;52.394;9.756;2022-10-16T15:25:41;19.90;1.00
3208;DHT22;1616;52.394;9.756;2022-10-16T15:28:08;19.80;1.00
3208;DHT22;1616;52.394;9.756;2022-10-16T15:30:35;19.70;1.00
3208;DHT22;1616;52.394;9.756;2022-10-16T15:33:02;19.70;1.00
3208;DHT22;1616;52.394;9.756;2022-10-16T15:35:28;19.60;1.00
3208;DHT22;1616;52.394;9.756;2022-10-16T15:37:55;19.60;1.00
3208;DHT22;1616;52.394;9.756;2022-10-16T15:40:21;19.50;1.00
3208;DHT22;1616;52.394;9.756;2022-10-16T15:42:47;19.50;1.00
3208;DHT22;1616;52.394;9.756;2022-10-16T15:45:13;19.40;1.00
3208;DHT22;1616;52.394;9.756;2022-10-16T15:47:41;19.30;1.00
3208;DHT22;1616;52.394;9.756;2022-10-16T15:50:10;19.20;1.00
3208;DHT22;1616;52.394;9.756;2022-10-16T15:52:37;19.10;1.00
3208;DHT22;1616;52.394;9.756;2022-10-16T15:55:09;19.10;1.00
3208;DHT22;1616;52.394;9.756;2022-10-16T15:57:36;19.00;1.00
3208;DHT22;1616;52.394;9.756;2022-10-16T16:00:15;18.90;1.00
3208;DHT22;1616;52.394;9.756;2022-10-16T16:02:43;18.90;1.00
3208;DHT22;1616;52.394;9.756;2022-10-16T16:05:10;18.90;1.00
3208;DHT22;1616;52.394;9.756;2022-10-16T16:07:37;18.80;1.00
3208;DHT22;1616;52.394;9.756;2022-10-16T16:10:05;18.70;1.00
3208;DHT22;1616;52.394;9.756;2022-10-16T16:12:32;18.60;1.00
3208;DHT22;1616;52.394;9.756;2022-10-16T16:14:57;18.60;1.00
3208;DHT22;1616;52.394;9.756;2022-10-16T16:17:23;18.50;1.00
3208;DHT22;1616;52.394;9.756;2022-10-16T16:19:50;18.50;1.00
3208;DHT22;1616;52.394;9.756;2022-10-16T16:22:16;18.40;1.00
3208;DHT22;1616;52.394;9.756;2022-10-16T16:24:42;18.40;1.00
3208;DHT22;1616;52.394;9.756;2022-10-16T16:27:08;18.30;1.00
3208;DHT22;1616;52.394;9.756;2022-10-16T16:29:34;18.20;1.00
3208;DHT22;1616;52.394;9.756;2022-10-16T16:32:00;18.10;1.00
3208;DHT22;1616;52.394;9.756;2022-10-16T16:34:27;18.00;1.00
3208;DHT22;1616;52.394;9.756;2022-10-16T16:36:54;17.90;1.00
3208;DHT22;1616;52.394;9.756;2022-10-16T16:39:20;17.80;1.00
3208;DHT22;1616;52.394;9.756;2022-10-16T16:41:46;17.70;1.00
3208;DHT22;1616;52.394;9.756;2022-10-16T16:44:13;17.60;1.00
3208;DHT22;1616;52.394;9.756;2022-10-16T16:46:39;17.50;1.00
3208;DHT22;1616;52.394;9.756;2022-10-16T16:49:05;17.30;1.00
3208;DHT22;1616;52.394;9.756;2022-10-16T16:51:32;17.30;1.00
3208;DHT22;1616;52.394;9.756;2022-10-16T16:53:58;17.20;1.00
3208;DHT22;1616;52.394;9.756;2022-10-16T16:56:25;17.10;1.00
3208;DHT22;1616;52.394;9.756;2022-10-16T16:58:53;17.00;1.00
3208;DHT22;1616;52.394;9.756;2022-10-16T17:01:19;16.90;1.00
3208;DHT22;1616;52.394;9.756;2022-10-16T17:03:45;16.90;1.00
3208;DHT22;1616;52.394;9.756;2022-10-16T17:06:13;16.90;1.00
3208;DHT22;1616;52.394;9.756;2022-10-16T17:08:39;16.80;1.00
3208;DHT22;1616;52.394;9.756;2022-10-16T17:11:05;16.80;1.00
3208;DHT22;1616;52.394;9.756;2022-10-16T17:13:34;16.80;1.00
3208;DHT22;1616;52.394;9.756;2022-10-16T17:16:04;16.80;1.00
3208;DHT22;1616;52.394;9.756;2022-10-16T17:18:30;16.90;1.00
3208;DHT22;1616;52.394;9.756;2022-10-16T17:20:59;16.90;1.00
3208;DHT22;1616;52.394;9.756;2022-10-16T17:23:25;16.90;1.00
3208;DHT22;1616;52.394;9.756;2022-10-16T17:25:50;16.90;1.00
3208;DHT22;1616;52.394;9.756;2022-10-16T17:28:16;16.90;1.00
3208;DHT22;1616;52.394;9.756;2022-10-16T17:30:42;16.90;1.00
3208;DHT22;1616;52.394;9.756;2022-10-16T17:33:09;17.00;1.00
3208;DHT22;1616;52.394;9.756;2022-10-16T17:35:43;17.00;1.00
3208;DHT22;1616;52.394;9.756;2022-10-16T17:38:11;17.00;1.00
3208;DHT22;1616;52.394;9.756;2022-10-16T17:40:37;17.00;1.00
3208;DHT22;1616;52.394;9.756;2022-10-16T17:43:03;17.00;1.00
3208;DHT22;1616;52.394;9.756;2022-10-16T17:45:29;16.90;1.00
3208;DHT22;1616;52.394;9.756;2022-10-16T17:47:57;17.00;1.00
3208;DHT22;1616;52.394;9.756;2022-10-16T17:50:23;16.90;1.00
3208;DHT22;1616;52.394;9.756;2022-10-16T17:52:49;16.80;1.00
3208;DHT22;1616;52.394;9.756;2022-10-16T17:55:15;16.70;1.00
3208;DHT22;1616;52.394;9.756;2022-10-16T17:57:41;16.70;1.00
3208;DHT22;1616;52.394;9.756;2022-10-16T18:00:07;16.60;1.00
3208;DHT22;1616;52.394;9.756;2022-10-16T18:02:33;16.60;1.00